createdAt,value
2022-10-17T00:00:55.839Z,83.62
2022-10-17T00:01:55.801Z,83.66
2022-10-17T00:02:55.781Z,83.66
2022-10-17T00:03:55.941Z,83.67
2022-10-17T00:04:55.720Z,83.73
2022-10-17T00:05:56.138Z,83.76
2022-10-17T00:06:55.793Z,83.74
2022-10-17T00:07:55.721Z,83.73
2022-10-17T00:08:55.750Z,83.66
2022-10-17T00:09:55.911Z,83.65
2022-10-17T00:10:55.651Z,83.60
2022-10-17T00:11:55.676Z,83.62
2022-10-17T00:12:55.631Z,83.64
2022-10-17T00:13:55.639Z,83.66
2022-10-17T00:14:55.607Z,83.72
2022-10-17T00:15:55.873Z,83.68
2022-10-17T00:16:55.624Z,83.70
2022-10-17T00:17:55.736Z,83.77
2022-10-17T00:18:55.783Z,83.82
2022-10-17T00:19:55.671Z,83.81
2022-10-17T00:20:55.661Z,83.66
2022-10-17T00:21:55.829Z,83.61
2022-10-17T00:22:55.660Z,83.75
2022-10-17T00:23:55.541Z,83.84
2022-10-17T00:24:55.529Z,83.94
2022-10-17T00:25:55.502Z,84.05
2022-10-17T00:26:55.491Z,84.07
2022-10-17T00:27:55.691Z,84.04
2022-10-17T00:28:55.565Z,83.94
2022-10-17T00:29:55.446Z,83.78
2022-10-17T00:30:55.485Z,83.76
2022-10-17T00:31:55.585Z,83.72
2022-10-17T00:32:55.681Z,83.69
2022-10-17T00:33:55.683Z,83.66
2022-10-17T00:34:55.585Z,83.55
2022-10-17T00:35:55.500Z,83.63
2022-10-17T00:36:55.492Z,83.61
2022-10-17T00:37:55.441Z,83.60
2022-10-17T00:38:55.615Z,83.58
2022-10-17T00:39:55.380Z,83.56
2022-10-17T00:41:55.401Z,83.46
2022-10-17T00:42:55.336Z,83.47
2022-10-17T00:43:55.324Z,83.42
2022-10-17T00:44:55.825Z,83.35
2022-10-17T00:45:55.281Z,83.39
2022-10-17T00:46:55.354Z,83.31
2022-10-17T00:47:55.261Z,83.30
2022-10-17T00:48:55.293Z,83.43
2022-10-17T00:49:55.367Z,83.54
2022-10-17T00:50:55.432Z,83.47
2022-10-17T00:51:55.252Z,83.26
2022-10-17T00:52:55.233Z,83.23
2022-10-17T00:53:55.207Z,83.21
2022-10-17T00:54:55.189Z,83.15
2022-10-17T00:55:55.354Z,83.21
2022-10-17T00:56:55.207Z,83.32
2022-10-17T00:57:55.173Z,83.35
2022-10-17T00:58:55.200Z,83.27
2022-10-17T00:59:55.123Z,83.28
2022-10-17T01:00:55.142Z,83.27
2022-10-17T01:01:55.470Z,83.34
2022-10-17T01:02:55.132Z,83.37
2022-10-17T01:03:55.062Z,83.41
2022-10-17T01:04:55.160Z,83.53
2022-10-17T01:05:55.083Z,83.59
2022-10-17T01:06:55.059Z,83.54
2022-10-17T01:07:55.302Z,83.51
2022-10-17T01:08:55.050Z,83.49
2022-10-17T01:09:55.013Z,83.50
2022-10-17T01:10:54.992Z,83.47
2022-10-17T01:11:55.002Z,83.43
2022-10-17T01:12:55.286Z,83.46
2022-10-17T01:13:55.003Z,83.53
2022-10-17T01:14:54.993Z,83.58
2022-10-17T01:15:54.972Z,83.66
2022-10-17T01:16:54.968Z,83.81
2022-10-17T01:17:54.981Z,83.76
2022-10-17T01:18:55.127Z,83.71
2022-10-17T01:19:54.952Z,83.70
2022-10-17T01:20:54.920Z,83.72
2022-10-17T01:21:54.881Z,83.76
2022-10-17T01:22:54.894Z,83.82
2022-10-17T01:23:54.886Z,83.88
2022-10-17T01:24:55.192Z,84.07
2022-10-17T01:25:55.006Z,84.24
2022-10-17T01:26:54.843Z,84.38
2022-10-17T01:27:54.842Z,84.54
2022-10-17T01:28:54.843Z,84.67
2022-10-17T01:29:54.782Z,84.74
2022-10-17T01:30:54.943Z,84.72
2022-10-17T01:31:54.805Z,84.74
2022-10-17T01:32:54.756Z,84.78
2022-10-17T01:33:54.746Z,84.76
2022-10-17T01:34:54.733Z,84.74
2022-10-17T01:35:54.733Z,84.72
2022-10-17T01:36:54.893Z,84.65
2022-10-17T01:37:54.755Z,84.61
2022-10-17T01:38:54.687Z,84.64
2022-10-17T01:39:54.783Z,84.68
2022-10-17T01:40:54.711Z,84.73
2022-10-17T01:41:54.832Z,84.75
2022-10-17T01:42:54.633Z,84.79
2022-10-17T01:43:54.807Z,84.75
2022-10-17T01:44:54.783Z,84.76
2022-10-17T01:45:54.715Z,84.81
2022-10-17T01:46:54.782Z,84.80
2022-10-17T01:47:54.881Z,84.81
2022-10-17T01:48:54.652Z,84.84
2022-10-17T01:49:54.636Z,84.88
2022-10-17T01:50:55.045Z,84.88
2022-10-17T01:51:54.686Z,84.84
2022-10-17T01:52:54.622Z,84.84
2022-10-17T01:53:54.620Z,84.84
2022-10-17T01:54:54.598Z,84.79
2022-10-17T01:55:54.579Z,84.77
2022-10-17T01:56:54.707Z,84.74
2022-10-17T01:57:54.569Z,84.69
2022-10-17T01:58:54.615Z,84.63
2022-10-17T01:59:54.563Z,84.63
2022-10-17T02:00:54.664Z,84.55
2022-10-17T02:01:54.571Z,84.54
2022-10-17T02:02:54.717Z,84.53
2022-10-17T02:03:54.415Z,84.55
2022-10-17T02:04:54.439Z,84.55
2022-10-17T02:05:54.372Z,84.50
2022-10-17T02:06:54.363Z,84.45
2022-10-17T02:07:54.374Z,84.52
2022-10-17T02:08:54.523Z,84.59
2022-10-17T02:09:54.351Z,84.60
2022-10-17T02:10:54.340Z,84.62
2022-10-17T02:11:54.326Z,84.60
2022-10-17T02:12:54.313Z,84.51
2022-10-17T02:13:54.292Z,84.46
2022-10-17T02:14:54.515Z,84.49
2022-10-17T02:15:54.292Z,84.52
2022-10-17T02:16:54.268Z,84.46
2022-10-17T02:17:54.243Z,84.36
2022-10-17T02:18:54.242Z,84.33
2022-10-17T02:19:54.477Z,84.41
2022-10-17T02:20:54.272Z,84.43
2022-10-17T02:21:54.283Z,84.43
2022-10-17T02:22:54.307Z,84.45
2022-10-17T02:23:54.193Z,84.52
2022-10-17T02:24:54.182Z,84.53
2022-10-17T02:25:54.343Z,84.49
2022-10-17T02:26:54.170Z,84.46
2022-10-17T02:27:54.144Z,84.45
2022-10-17T02:28:54.201Z,84.40
2022-10-17T02:29:54.133Z,84.40
2022-10-17T02:30:54.273Z,84.33
2022-10-17T02:31:54.103Z,84.30
2022-10-17T02:32:54.118Z,84.28
2022-10-17T02:33:54.083Z,84.29
2022-10-17T02:34:54.083Z,84.35
2022-10-17T02:35:54.223Z,84.38
2022-10-17T02:36:54.077Z,84.37
2022-10-17T02:37:54.034Z,84.47
2022-10-17T02:38:54.048Z,84.39
2022-10-17T02:39:54.075Z,84.24
2022-10-17T02:40:54.035Z,84.24
2022-10-17T02:41:54.163Z,84.22
2022-10-17T02:42:54.058Z,84.12
2022-10-17T02:43:55.715Z,84.02
2022-10-17T02:44:53.974Z,83.96
2022-10-17T02:45:53.933Z,83.90
2022-10-17T02:46:54.192Z,83.89
2022-10-17T02:47:53.925Z,83.93
2022-10-17T02:48:53.924Z,83.93
2022-10-17T02:49:53.899Z,83.99
2022-10-17T02:50:53.893Z,84.05
2022-10-17T02:51:53.868Z,84.10
2022-10-17T02:52:54.052Z,84.09
2022-10-17T02:53:53.854Z,84.04
2022-10-17T02:54:53.852Z,84.07
2022-10-17T02:55:53.860Z,84.14
2022-10-17T02:56:53.823Z,84.11
2022-10-17T02:57:53.808Z,84.14
2022-10-17T02:58:54.044Z,84.12
2022-10-17T02:59:53.799Z,84.05
2022-10-17T03:00:53.804Z,84.05
2022-10-17T03:02:02.297Z,84.12
2022-10-17T03:03:01.270Z,84.16
2022-10-17T03:04:02.464Z,84.22
2022-10-17T03:05:01.245Z,84.25
2022-10-17T03:06:01.239Z,84.22
2022-10-17T03:07:02.393Z,84.24
2022-10-17T03:08:01.212Z,84.29
2022-10-17T03:09:01.206Z,84.35
2022-10-17T03:10:02.400Z,84.35
2022-10-17T03:11:01.198Z,84.35
2022-10-17T03:12:01.172Z,84.29
2022-10-17T03:13:01.158Z,84.28
2022-10-17T03:14:01.145Z,84.23
2022-10-17T03:14:53.780Z,84.22
2022-10-17T03:15:53.613Z,84.21
2022-10-17T03:16:53.608Z,84.19
2022-10-17T03:17:53.595Z,84.15
2022-10-17T03:18:53.581Z,84.10
2022-10-17T03:19:53.756Z,84.02
2022-10-17T03:20:53.556Z,83.99
2022-10-17T03:21:53.556Z,84.05
2022-10-17T03:22:53.556Z,84.08
2022-10-17T03:23:53.543Z,84.16
2022-10-17T03:24:53.543Z,84.22
2022-10-17T03:25:53.677Z,84.28
2022-10-17T03:26:53.481Z,84.33
2022-10-17T03:27:53.644Z,84.40
2022-10-17T03:28:54.556Z,84.40
2022-10-17T03:29:53.469Z,84.37
2022-10-17T03:30:53.458Z,84.37
2022-10-17T03:31:53.459Z,84.38
2022-10-17T03:32:53.656Z,84.26
2022-10-17T03:33:53.416Z,84.18
2022-10-17T03:34:53.529Z,84.09
2022-10-17T03:35:53.400Z,84.11
2022-10-17T03:36:53.386Z,84.26
2022-10-17T03:37:53.387Z,84.30
2022-10-17T03:38:53.565Z,84.35
2022-10-17T03:39:53.366Z,84.31
2022-10-17T03:40:53.339Z,84.24
2022-10-17T03:41:53.344Z,84.24
2022-10-17T03:42:53.317Z,84.18
2022-10-17T03:43:53.311Z,84.14
2022-10-17T03:44:53.481Z,84.15
2022-10-17T03:45:53.322Z,84.15
2022-10-17T03:46:53.278Z,84.09
2022-10-17T03:47:53.297Z,84.10
2022-10-17T03:48:53.237Z,84.15
2022-10-17T03:49:53.264Z,84.18
2022-10-17T03:50:53.447Z,84.19
2022-10-17T03:51:53.427Z,84.22
2022-10-17T03:52:53.235Z,84.27
2022-10-17T03:53:53.197Z,84.26
2022-10-17T03:54:53.188Z,84.31
2022-10-17T03:55:53.181Z,84.27
2022-10-17T03:56:53.263Z,84.29
2022-10-17T03:57:53.328Z,84.30
2022-10-17T03:58:53.137Z,84.20
2022-10-17T03:59:53.137Z,84.05
2022-10-17T04:00:53.208Z,84.04
2022-10-17T04:01:53.119Z,84.09
2022-10-17T04:02:53.115Z,84.23
2022-10-17T04:03:53.318Z,84.30
2022-10-17T04:04:53.106Z,84.30
2022-10-17T04:05:53.057Z,84.20
2022-10-17T04:06:53.112Z,84.14
2022-10-17T04:07:53.087Z,84.22
2022-10-17T04:08:53.047Z,84.23
2022-10-17T04:09:53.202Z,84.21
2022-10-17T04:10:53.021Z,84.25
2022-10-17T04:11:53.017Z,84.30
2022-10-17T04:12:53.005Z,84.39
2022-10-17T04:13:52.992Z,84.31
2022-10-17T04:14:53.162Z,84.16
2022-10-17T04:15:52.947Z,84.28
2022-10-17T04:16:52.967Z,84.42
2022-10-17T04:17:53.026Z,84.47
2022-10-17T04:18:52.917Z,84.55
2022-10-17T04:19:52.975Z,84.47
2022-10-17T04:20:53.121Z,84.48
2022-10-17T04:21:52.906Z,84.46
2022-10-17T04:22:52.887Z,84.38
2022-10-17T04:23:52.896Z,84.24
2022-10-17T04:24:52.869Z,84.23
2022-10-17T04:25:52.853Z,84.22
2022-10-17T04:26:53.026Z,84.16
2022-10-17T04:27:52.825Z,84.16
2022-10-17T04:28:52.820Z,84.17
2022-10-17T04:29:52.822Z,84.02
2022-10-17T04:30:54.182Z,84.02
2022-10-17T04:31:52.788Z,83.97
2022-10-17T04:32:52.949Z,83.97
2022-10-17T04:33:52.956Z,84.03
2022-10-17T04:34:52.790Z,84.10
2022-10-17T04:35:52.780Z,84.10
2022-10-17T04:36:52.769Z,84.18
2022-10-17T04:37:52.753Z,84.27
2022-10-17T04:38:52.920Z,84.22
2022-10-17T04:39:52.710Z,84.22
2022-10-17T04:40:52.751Z,84.24
2022-10-17T04:41:52.711Z,84.27
2022-10-17T04:42:52.683Z,84.26
2022-10-17T04:43:52.673Z,84.15
2022-10-17T04:44:52.999Z,84.05
2022-10-17T04:45:52.659Z,83.91
2022-10-17T04:46:52.631Z,83.88
2022-10-17T04:47:52.620Z,83.92
2022-10-17T04:48:52.618Z,83.97
2022-10-17T04:49:52.680Z,84.02
2022-10-17T04:50:52.972Z,83.98
2022-10-17T04:51:52.629Z,83.94
2022-10-17T04:52:52.578Z,83.96
2022-10-17T04:53:52.628Z,83.96
2022-10-17T04:54:52.558Z,83.94
2022-10-17T04:55:52.548Z,83.92
2022-10-17T04:56:52.718Z,83.93
2022-10-17T04:57:52.517Z,83.95
2022-10-17T04:58:52.501Z,83.99
2022-10-17T04:59:52.488Z,83.96
2022-10-17T05:00:52.485Z,83.91
2022-10-17T05:01:52.483Z,84.03
2022-10-17T05:02:52.615Z,84.13
2022-10-17T05:03:52.434Z,84.27
2022-10-17T05:04:52.431Z,84.33
2022-10-17T05:05:52.449Z,84.30
2022-10-17T05:06:52.635Z,84.31
2022-10-17T05:07:52.418Z,84.33
2022-10-17T05:08:52.380Z,84.38
2022-10-17T05:09:52.391Z,84.37
2022-10-17T05:10:52.406Z,84.36
2022-10-17T05:11:52.355Z,84.32
2022-10-17T05:12:52.549Z,84.22
2022-10-17T05:13:52.356Z,84.29
2022-10-17T05:14:52.330Z,84.36
2022-10-17T05:15:52.310Z,84.39
2022-10-17T05:16:52.349Z,84.47
2022-10-17T05:17:52.284Z,84.53
2022-10-17T05:18:53.044Z,84.43
2022-10-17T05:19:52.269Z,84.32
2022-10-17T05:20:52.274Z,84.29
2022-10-17T05:21:52.249Z,84.32
2022-10-17T05:22:52.230Z,84.31
2022-10-17T05:23:52.242Z,84.33
2022-10-17T05:24:52.251Z,84.42
2022-10-17T05:25:52.201Z,84.48
2022-10-17T05:26:52.336Z,84.52
2022-10-17T05:27:52.178Z,84.59
2022-10-17T05:28:52.191Z,84.53
2022-10-17T05:29:52.161Z,84.48
2022-10-17T05:30:52.310Z,84.48
2022-10-17T05:31:52.192Z,84.48
2022-10-17T05:32:52.132Z,84.58
2022-10-17T05:33:52.155Z,84.57
2022-10-17T05:34:59.620Z,84.56
2022-10-17T05:35:52.131Z,84.69
2022-10-17T05:36:52.239Z,84.67
2022-10-17T05:37:52.079Z,84.72
2022-10-17T05:38:52.061Z,84.66
2022-10-17T05:39:52.056Z,84.64
2022-10-17T05:40:52.030Z,84.70
2022-10-17T05:41:52.054Z,84.63
2022-10-17T05:42:52.188Z,84.62
2022-10-17T05:43:52.879Z,84.57
2022-10-17T05:44:52.005Z,84.56
2022-10-17T05:45:51.991Z,84.59
2022-10-17T05:46:51.970Z,84.68
2022-10-17T05:47:51.960Z,84.74
2022-10-17T05:48:52.101Z,84.82
2022-10-17T05:49:52.641Z,84.80
2022-10-17T05:50:51.924Z,84.86
2022-10-17T05:51:51.912Z,84.89
2022-10-17T05:52:51.907Z,84.92
2022-10-17T05:53:51.885Z,85.16
2022-10-17T05:54:52.061Z,85.20
2022-10-17T05:55:51.911Z,85.37
2022-10-17T05:56:51.851Z,85.40
2022-10-17T05:57:51.861Z,85.33
2022-10-17T05:58:55.050Z,85.58
2022-10-17T05:59:52.058Z,85.46
2022-10-17T06:00:51.827Z,85.34
2022-10-17T06:01:51.845Z,85.44
2022-10-17T06:02:51.800Z,85.38
2022-10-17T06:03:51.784Z,85.23
2022-10-17T06:04:51.774Z,85.00
2022-10-17T06:05:51.940Z,85.02
2022-10-17T06:06:51.752Z,84.93
2022-10-17T06:07:51.745Z,84.91
2022-10-17T06:08:51.749Z,84.91
2022-10-17T06:09:51.719Z,84.76
2022-10-17T06:10:51.700Z,84.77
2022-10-17T06:11:51.884Z,84.67
2022-10-17T06:12:51.683Z,84.70
2022-10-17T06:13:51.688Z,84.70
2022-10-17T06:14:51.670Z,84.70
2022-10-17T06:15:51.673Z,84.70
2022-10-17T06:16:51.658Z,84.72
2022-10-17T06:17:51.799Z,84.74
2022-10-17T06:18:51.639Z,84.81
2022-10-17T06:19:51.611Z,84.88
2022-10-17T06:20:51.636Z,84.89
2022-10-17T06:21:51.590Z,84.89
2022-10-17T06:22:51.602Z,84.77
2022-10-17T06:23:51.770Z,84.94
2022-10-17T06:24:51.830Z,84.93
2022-10-17T06:25:51.607Z,84.97
2022-10-17T06:26:51.572Z,84.83
2022-10-17T06:28:51.609Z,84.74
2022-10-17T06:29:51.712Z,84.70
2022-10-17T06:30:51.490Z,84.65
2022-10-17T06:31:51.490Z,84.66
2022-10-17T06:32:51.471Z,84.58
2022-10-17T06:33:51.461Z,84.54
2022-10-17T06:34:51.456Z,84.51
2022-10-17T06:35:51.595Z,84.50
2022-10-17T06:36:51.470Z,84.47
2022-10-17T06:37:51.411Z,84.49
2022-10-17T06:38:51.420Z,84.46
2022-10-17T06:39:51.394Z,84.45
2022-10-17T06:40:51.570Z,84.57
2022-10-17T06:41:51.382Z,84.53
2022-10-17T06:42:51.360Z,84.43
2022-10-17T06:43:51.351Z,84.33
2022-10-17T06:44:51.331Z,84.29
2022-10-17T06:45:51.401Z,84.21
2022-10-17T06:46:51.608Z,84.21
2022-10-17T06:47:51.323Z,84.23
2022-10-17T06:48:51.300Z,84.20
2022-10-17T06:49:51.285Z,84.19
2022-10-17T06:50:51.270Z,84.15
2022-10-17T06:51:51.286Z,84.12
2022-10-17T06:52:51.470Z,84.14
2022-10-17T06:53:51.250Z,84.17
2022-10-17T06:54:51.269Z,84.25
2022-10-17T06:55:51.228Z,84.32
2022-10-17T06:56:51.213Z,84.23
2022-10-17T06:57:51.194Z,84.32
2022-10-17T06:58:51.371Z,84.30
2022-10-17T06:59:51.195Z,84.47
2022-10-17T07:00:51.231Z,84.55
2022-10-17T07:01:51.170Z,84.63
2022-10-17T07:02:51.141Z,84.58
2022-10-17T07:03:51.160Z,84.66
2022-10-17T07:04:51.291Z,84.75
2022-10-17T07:05:51.116Z,84.58
2022-10-17T07:06:51.281Z,84.32
2022-10-17T07:07:52.027Z,84.16
2022-10-17T07:08:51.072Z,84.12
2022-10-17T07:09:51.071Z,84.12
2022-10-17T07:10:51.053Z,84.12
2022-10-17T07:11:51.049Z,84.05
2022-10-17T07:12:51.214Z,83.89
2022-10-17T07:13:51.053Z,83.82
2022-10-17T07:14:51.010Z,83.85
2022-10-17T07:15:51.078Z,83.93
2022-10-17T07:16:50.997Z,83.99
2022-10-17T07:17:50.983Z,84.04
2022-10-17T07:18:51.169Z,84.10
2022-10-17T07:19:50.978Z,84.12
2022-10-17T07:20:50.988Z,84.03
2022-10-17T07:21:50.935Z,84.01
2022-10-17T07:22:50.934Z,84.05
2022-10-17T07:23:50.928Z,83.98
2022-10-17T07:24:51.077Z,83.87
2022-10-17T07:25:50.905Z,84.06
2022-10-17T07:26:50.890Z,84.32
2022-10-17T07:27:50.874Z,84.36
2022-10-17T07:28:50.955Z,84.31
2022-10-17T07:29:50.869Z,84.25
2022-10-17T07:30:53.712Z,84.17
2022-10-17T07:31:50.865Z,84.12
2022-10-17T07:32:50.802Z,84.06
2022-10-17T07:33:50.810Z,84.04
2022-10-17T07:34:50.809Z,84.03
2022-10-17T07:35:50.778Z,83.99
2022-10-17T07:36:50.922Z,84.08
2022-10-17T07:37:50.764Z,84.16
2022-10-17T07:38:50.749Z,84.09
2022-10-17T07:39:50.734Z,84.15
2022-10-17T07:40:50.736Z,84.19
2022-10-17T07:41:50.746Z,84.50
2022-10-17T07:42:50.877Z,84.48
2022-10-17T07:43:50.685Z,84.37
2022-10-17T07:44:50.697Z,84.35
2022-10-17T07:45:50.673Z,84.25
2022-10-17T07:46:50.667Z,83.94
2022-10-17T07:47:50.660Z,83.69
2022-10-17T07:48:51.006Z,83.35
2022-10-17T07:49:50.627Z,83.04
2022-10-17T07:50:50.625Z,82.78
2022-10-17T07:51:50.621Z,82.48
2022-10-17T07:52:50.646Z,82.16
2022-10-17T07:53:50.583Z,81.97
2022-10-17T07:54:50.777Z,81.79
2022-10-17T07:55:50.564Z,81.77
2022-10-17T07:56:50.874Z,81.60
2022-10-17T07:57:50.532Z,81.40
2022-10-17T07:58:50.564Z,81.23
2022-10-17T07:59:50.530Z,81.15
2022-10-17T08:00:50.757Z,81.21
2022-10-17T08:01:50.498Z,81.21
2022-10-17T08:02:50.494Z,81.15
2022-10-17T08:03:50.475Z,81.05
2022-10-17T08:04:50.467Z,81.17
2022-10-17T08:05:50.462Z,81.00
2022-10-17T08:06:53.362Z,80.97
2022-10-17T08:07:51.424Z,80.85
2022-10-17T08:08:50.433Z,80.75
2022-10-17T08:09:50.414Z,80.64
2022-10-17T08:10:50.393Z,80.55
2022-10-17T08:11:50.382Z,80.73
2022-10-17T08:12:50.587Z,80.58
2022-10-17T08:13:50.385Z,80.86
2022-10-17T08:14:50.347Z,80.56
2022-10-17T08:15:50.353Z,80.29
2022-10-17T08:16:50.545Z,79.78
2022-10-17T08:17:50.331Z,79.57
2022-10-17T08:18:50.307Z,79.55
2022-10-17T08:19:50.300Z,79.35
2022-10-17T08:20:50.991Z,79.34
2022-10-17T08:21:50.355Z,79.56
2022-10-17T08:22:50.599Z,79.32
2022-10-17T08:23:50.272Z,79.00
2022-10-17T08:24:50.261Z,78.62
2022-10-17T08:25:50.255Z,78.42
2022-10-17T08:26:51.858Z,78.14
2022-10-17T08:27:50.264Z,78.00
2022-10-17T08:28:50.395Z,77.93
2022-10-17T08:29:50.176Z,77.83
2022-10-17T08:30:50.182Z,77.66
2022-10-17T08:31:54.086Z,77.58
2022-10-17T08:32:51.154Z,77.30
2022-10-17T08:33:50.325Z,76.93
2022-10-17T08:34:50.132Z,76.87
2022-10-17T08:35:50.117Z,77.09
2022-10-17T08:36:50.597Z,77.18
2022-10-17T08:37:50.093Z,77.40
2022-10-17T08:38:52.829Z,76.92
2022-10-17T08:39:50.078Z,76.56
2022-10-17T08:40:50.065Z,76.18
2022-10-17T08:41:50.222Z,75.94
2022-10-17T08:42:50.038Z,75.82
2022-10-17T08:43:50.048Z,75.56
2022-10-17T08:44:50.022Z,75.32
2022-10-17T08:45:50.005Z,75.26
2022-10-17T08:46:49.997Z,74.85
2022-10-17T08:47:50.148Z,74.66
2022-10-17T08:48:49.983Z,74.66
2022-10-17T08:49:49.996Z,74.35
2022-10-17T08:50:49.947Z,73.89
2022-10-17T08:51:49.949Z,73.70
2022-10-17T08:52:50.117Z,73.67
2022-10-17T08:53:49.910Z,73.03
2022-10-17T08:54:49.911Z,73.07
2022-10-17T08:55:49.898Z,73.42
2022-10-17T08:56:49.994Z,73.57
2022-10-17T08:57:49.897Z,73.73
2022-10-17T08:58:50.140Z,74.05
2022-10-17T08:59:49.896Z,74.09
2022-10-17T09:00:49.857Z,73.97
2022-10-17T09:01:49.830Z,74.16
2022-10-17T09:02:49.899Z,74.24
2022-10-17T09:03:49.817Z,74.19
2022-10-17T09:04:50.039Z,74.38
2022-10-17T09:05:49.795Z,74.17
2022-10-17T09:06:49.798Z,74.25
2022-10-17T09:08:15.789Z,73.94
2022-10-17T09:08:57.259Z,74.06
2022-10-17T09:09:59.438Z,73.65
2022-10-17T09:10:57.536Z,73.70
2022-10-17T09:11:58.253Z,73.90
2022-10-17T09:12:57.205Z,73.84
2022-10-17T09:13:58.261Z,73.37
2022-10-17T09:14:57.192Z,73.81
2022-10-17T09:15:58.392Z,74.03
2022-10-17T09:16:57.180Z,73.87
2022-10-17T09:17:57.160Z,74.14
2022-10-17T09:18:49.639Z,74.32
2022-10-17T09:19:49.631Z,74.45
2022-10-17T09:20:49.817Z,74.24
2022-10-17T09:21:49.609Z,74.08
2022-10-17T09:22:49.628Z,74.10
2022-10-17T09:23:50.102Z,74.14
2022-10-17T09:24:49.573Z,74.05
2022-10-17T09:25:49.571Z,73.66
2022-10-17T09:26:49.759Z,73.19
2022-10-17T09:27:49.557Z,73.12
2022-10-17T09:28:49.566Z,73.21
2022-10-17T09:29:49.639Z,72.92
2022-10-17T09:30:49.521Z,72.65
2022-10-17T09:31:49.529Z,72.29
2022-10-17T09:32:49.672Z,72.11
2022-10-17T09:33:54.358Z,71.73
2022-10-17T09:34:50.469Z,71.68
2022-10-17T09:35:49.471Z,71.51
2022-10-17T09:36:49.459Z,70.23
2022-10-17T09:37:49.460Z,68.55
2022-10-17T09:38:49.677Z,68.38
2022-10-17T09:39:49.433Z,68.11
2022-10-17T09:40:52.665Z,67.79
2022-10-17T09:41:50.410Z,68.07
2022-10-17T09:42:49.426Z,68.17
2022-10-17T09:43:49.392Z,68.04
2022-10-17T09:44:49.530Z,67.72
2022-10-17T09:45:49.359Z,66.98
2022-10-17T09:46:49.341Z,66.76
2022-10-17T09:48:52.577Z,65.95
2022-10-17T09:49:49.337Z,65.86
2022-10-17T09:50:57.886Z,65.98
2022-10-17T09:51:50.308Z,65.83
2022-10-17T09:52:49.282Z,66.10
2022-10-17T09:53:49.272Z,66.02
2022-10-17T09:54:49.265Z,66.17
2022-10-17T09:55:49.274Z,66.23
2022-10-17T09:56:49.511Z,66.10
2022-10-17T09:57:49.230Z,66.34
2022-10-17T09:58:49.242Z,66.50
2022-10-17T09:59:49.203Z,66.47
2022-10-17T10:00:49.293Z,65.93
2022-10-17T10:01:49.192Z,65.51
2022-10-17T10:02:49.358Z,65.46
2022-10-17T10:03:49.161Z,65.43
2022-10-17T10:05:03.837Z,64.81
2022-10-17T10:05:50.154Z,64.73
2022-10-17T10:06:49.140Z,64.35
2022-10-17T10:07:49.117Z,64.76
2022-10-17T10:08:49.370Z,64.37
2022-10-17T10:09:49.113Z,64.40
2022-10-17T10:10:49.088Z,64.75
2022-10-17T10:11:49.078Z,64.83
2022-10-17T10:12:49.062Z,64.71
2022-10-17T10:13:49.239Z,63.93
2022-10-17T10:14:52.217Z,63.79
2022-10-17T10:15:50.043Z,64.11
2022-10-17T10:16:49.012Z,63.93
2022-10-17T10:17:49.054Z,63.21
2022-10-17T10:18:50.864Z,63.23
2022-10-17T10:19:49.004Z,63.51
2022-10-17T10:20:49.201Z,63.46
2022-10-17T10:21:48.974Z,63.74
2022-10-17T10:22:48.956Z,63.90
2022-10-17T10:23:48.953Z,63.93
2022-10-17T10:24:48.937Z,63.59
2022-10-17T10:25:49.194Z,62.94
2022-10-17T10:26:48.914Z,63.71
2022-10-17T10:27:48.903Z,63.61
2022-10-17T10:28:48.922Z,63.42
2022-10-17T10:29:48.880Z,63.26
2022-10-17T10:30:48.866Z,62.45
2022-10-17T10:31:49.054Z,62.67
2022-10-17T10:32:48.898Z,62.47
2022-10-17T10:33:50.946Z,62.59
2022-10-17T10:34:48.824Z,62.83
2022-10-17T10:35:48.812Z,62.71
2022-10-17T10:36:49.002Z,62.14
2022-10-17T10:37:48.898Z,62.34
2022-10-17T10:38:48.785Z,62.34
2022-10-17T10:39:48.764Z,61.38
2022-10-17T10:40:48.755Z,60.95
2022-10-17T10:41:48.745Z,60.82
2022-10-17T10:42:48.917Z,60.74
2022-10-17T10:43:48.759Z,60.66
2022-10-17T10:44:48.709Z,59.90
2022-10-17T10:45:49.246Z,60.00
2022-10-17T10:46:48.712Z,59.86
2022-10-17T10:47:48.984Z,60.63
2022-10-17T10:48:48.668Z,60.61
2022-10-17T10:49:48.676Z,59.90
2022-10-17T10:50:48.667Z,59.77
2022-10-17T10:51:48.640Z,60.02
2022-10-17T10:52:48.648Z,60.41
2022-10-17T10:53:57.378Z,60.48
2022-10-17T10:54:48.611Z,60.60
2022-10-17T10:55:56.165Z,60.83
2022-10-17T10:56:51.148Z,61.00
2022-10-17T10:57:48.570Z,60.69
2022-10-17T10:58:57.294Z,60.39
2022-10-17T10:59:48.558Z,60.87
2022-10-17T11:00:48.603Z,60.78
2022-10-17T11:01:48.537Z,60.00
2022-10-17T11:02:48.539Z,60.47
2022-10-17T11:03:57.223Z,60.38
2022-10-17T11:04:56.003Z,60.90
2022-10-17T11:05:56.011Z,60.88
2022-10-17T11:10:16.611Z,60.59
2022-10-17T11:11:16.379Z,61.67
2022-10-17T11:12:16.367Z,62.84
2022-10-17T11:13:16.359Z,61.29
2022-10-17T11:14:16.349Z,60.43
2022-10-17T11:15:16.343Z,60.06
2022-10-17T11:16:16.490Z,59.56
2022-10-17T11:17:16.342Z,59.47
2022-10-17T11:18:16.310Z,59.55
2022-10-17T11:19:16.308Z,60.05
2022-10-17T11:20:16.287Z,59.67
2022-10-17T11:21:16.277Z,60.26
2022-10-17T11:22:16.491Z,61.79
2022-10-17T11:23:16.262Z,59.50
2022-10-17T11:24:16.243Z,59.28
2022-10-17T11:25:16.246Z,59.62
2022-10-17T11:26:16.226Z,60.84
2022-10-17T11:27:16.221Z,61.52
2022-10-17T11:28:16.399Z,61.50
2022-10-17T11:29:16.186Z,61.98
2022-10-17T11:30:16.178Z,61.66
2022-10-17T11:31:16.160Z,63.16
2022-10-17T11:32:16.158Z,64.14
2022-10-17T11:33:16.149Z,63.09
2022-10-17T11:34:16.293Z,61.23
2022-10-17T11:35:16.256Z,62.41
2022-10-17T11:36:16.138Z,62.22
2022-10-17T11:37:16.104Z,60.42
2022-10-17T11:38:16.103Z,60.25
2022-10-17T11:39:16.161Z,58.94
2022-10-17T11:40:19.154Z,59.14
2022-10-17T11:41:17.080Z,60.75
2022-10-17T11:42:16.070Z,59.21
2022-10-17T11:43:16.042Z,58.34
2022-10-17T11:44:16.044Z,57.45
2022-10-17T11:45:16.274Z,56.75
2022-10-17T11:46:16.011Z,56.43
2022-10-17T11:47:16.000Z,56.64
2022-10-17T11:48:15.981Z,57.15
2022-10-17T11:49:20.167Z,56.30
2022-10-17T11:52:37.693Z,56.25
2022-10-17T11:53:16.932Z,58.04
2022-10-17T11:54:15.917Z,59.87
2022-10-17T11:55:15.904Z,57.64
2022-10-17T11:56:15.912Z,57.06
2022-10-17T11:57:16.063Z,56.78
2022-10-17T11:58:15.939Z,59.47
2022-10-17T11:59:15.865Z,60.97
2022-10-17T12:00:15.853Z,61.66
2022-10-17T12:01:15.836Z,58.85
2022-10-17T12:02:15.881Z,58.13
2022-10-17T12:03:16.707Z,57.87
2022-10-17T12:04:15.821Z,57.00
2022-10-17T12:05:15.805Z,57.33
2022-10-17T12:06:15.798Z,56.90
2022-10-17T12:07:15.778Z,56.52
2022-10-17T12:08:15.779Z,56.06
2022-10-17T12:09:15.965Z,55.78
2022-10-17T12:10:15.755Z,56.14
2022-10-17T12:11:15.744Z,56.59
2022-10-17T12:12:15.739Z,59.08
2022-10-17T12:13:15.714Z,59.87
2022-10-17T12:14:15.905Z,59.79
2022-10-17T12:15:15.685Z,59.21
2022-10-17T12:16:17.498Z,57.02
2022-10-17T12:17:15.666Z,57.11
2022-10-17T12:18:16.475Z,56.28
2022-10-17T12:19:15.657Z,56.37
2022-10-17T12:20:15.904Z,58.41
2022-10-17T12:21:15.620Z,60.50
2022-10-17T12:22:15.625Z,60.13
2022-10-17T12:23:15.616Z,60.20
2022-10-17T12:24:18.867Z,60.24
2022-10-17T12:25:15.575Z,61.28
2022-10-17T12:26:15.787Z,61.78
2022-10-17T12:27:15.561Z,59.25
2022-10-17T12:28:15.557Z,58.09
2022-10-17T12:29:15.548Z,57.96
2022-10-17T12:30:15.525Z,56.78
2022-10-17T12:31:15.551Z,56.31
2022-10-17T12:32:15.704Z,55.92
2022-10-17T12:33:15.491Z,56.05
2022-10-17T12:34:15.488Z,56.27
2022-10-17T12:35:15.473Z,58.58
2022-10-17T12:36:15.458Z,56.29
2022-10-17T12:37:15.466Z,58.07
2022-10-17T12:38:15.701Z,56.13
2022-10-17T12:39:15.445Z,55.86
2022-10-17T12:40:15.417Z,55.54
2022-10-17T12:41:15.447Z,55.63
2022-10-17T12:42:15.407Z,56.02
2022-10-17T12:43:15.391Z,56.18
2022-10-17T12:44:15.711Z,55.00
2022-10-17T12:45:15.372Z,55.12
2022-10-17T12:46:15.376Z,54.63
2022-10-17T12:47:15.364Z,54.42
2022-10-17T12:48:15.332Z,54.22
2022-10-17T12:49:15.319Z,53.87
2022-10-17T12:50:16.218Z,53.62
2022-10-17T12:52:16.295Z,53.74
2022-10-17T12:53:18.381Z,53.37
2022-10-17T12:54:15.276Z,53.32
2022-10-17T12:55:15.253Z,53.57
2022-10-17T12:56:15.546Z,53.42
2022-10-17T12:57:15.282Z,53.16
2022-10-17T12:58:15.208Z,52.79
2022-10-17T12:59:15.199Z,54.17
2022-10-17T13:00:22.707Z,52.92
2022-10-17T13:01:24.878Z,53.55
2022-10-17T13:02:22.706Z,55.78